Terminal Aerodrome Forecast
Issued by NWS Sterling, VA

Current Version | Previous Version | Text Only | Print | Product List | Glossary On
Versions: 1 2 3 4 5 6 7 8 9 10 11 12 13 14 15 16
000
FTUS41 KLWX 301100
TAFCHO
TAF
KCHO 301131Z 3012/3112 00000KT P6SM OVC013
     FM301400 00000KT P6SM BKN050
     FM301800 16005KT P6SM SCT090
     FM310300 VRB03KT 5SM BR SCT250
     FM310600 VRB03KT 2SM BR SCT090
     FM310900 VRB03KT 2SM BR BKN025=

USA.gov is the U.S. government's official web portal to all federal, state and local government web resources and services.